Time;durP1;ratioP1;P1;durP2;ratioP2;P2;SDS_P1;SDS_P2;PMS_P1;PMS_P2;Temp;Humidity;BMP_temperature;BMP_pressure;BME280_temperature;BME280_humidity;BME280_pressure;Samples;Min_cycle;Max_cycle;Signal;HPM_P1;HPM_P2
2022/03/22 00:01:26;;;;;;;6.43;4.78;;;14.60;46.70;;;;;;5121922;28;20274;-66
2022/03/22 00:03:52;;;;;;;5.70;4.30;;;14.60;46.70;;;;;;5120543;28;20019;-66
2022/03/22 00:06:20;;;;;;;6.47;4.95;;;14.60;46.70;;;;;;5121853;28;20020;-66
2022/03/22 00:08:46;;;;;;;5.72;4.90;;;14.50;46.70;;;;;;5120383;28;20081;-67
2022/03/22 00:11:13;;;;;;;6.65;5.20;;;14.60;46.80;;;;;;5121694;28;20317;-67
2022/03/22 00:13:39;;;;;;;6.28;5.00;;;14.60;46.70;;;;;;5121678;28;20298;-66
2022/03/22 00:16:07;;;;;;;4.88;4.30;;;14.50;47.30;;;;;;5121591;28;20027;-67
2022/03/22 00:18:34;;;;;;;5.97;4.57;;;14.50;46.70;;;;;;5121550;28;20043;-66
2022/03/22 00:20:59;;;;;;;6.82;4.88;;;14.50;46.80;;;;;;5121530;28;20031;-66
2022/03/22 00:23:25;;;;;;;6.43;4.93;;;14.50;46.80;;;;;;5121423;28;20038;-67
2022/03/22 00:25:51;;;;;;;6.15;5.05;;;14.50;46.80;;;;;;5121335;28;20034;-67
2022/03/22 00:28:16;;;;;;;6.43;5.22;;;14.50;46.80;;;;;;5119970;28;20016;-67
2022/03/22 00:30:42;;;;;;;6.47;4.82;;;14.50;46.80;;;;;;5121261;28;20023;-68
2022/03/22 00:33:08;;;;;;;6.05;4.72;;;14.50;46.80;;;;;;5121216;28;20254;-65
2022/03/22 00:35:36;;;;;;;7.43;5.32;;;14.50;46.80;;;;;;5121196;28;20019;-66
2022/03/22 00:38:08;;;;;;;6.22;4.80;;;14.50;46.80;;;;;;5121138;28;20012;-66
2022/03/22 00:40:34;;;;;;;5.88;4.80;;;14.40;46.70;;;;;;5121107;27;20197;-67
2022/03/22 00:43:00;;;;;;;7.13;5.22;;;14.40;46.70;;;;;;5121054;28;20019;-67
2022/03/22 00:45:29;;;;;;;5.65;4.20;;;14.40;46.70;;;;;;5120820;28;20038;-68
2022/03/22 00:47:56;;;;;;;6.00;4.95;;;14.40;46.70;;;;;;5120948;28;20024;-66
2022/03/22 00:50:26;;;;;;;5.28;4.40;;;14.40;46.70;;;;;;5119512;28;20023;-66
2022/03/22 00:52:52;;;;;;;4.82;4.18;;;14.40;46.80;;;;;;5120827;28;20019;-67
2022/03/22 00:55:21;;;;;;;6.57;4.78;;;14.40;46.80;;;;;;5120794;28;20019;-66
2022/03/22 00:57:47;;;;;;;6.53;4.60;;;14.40;46.80;;;;;;5120784;28;20101;-67
2022/03/22 01:00:14;;;;;;;6.18;5.15;;;14.40;46.80;;;;;;5120628;28;20027;-66
2022/03/22 01:02:49;;;;;;;5.25;4.55;;;14.40;46.80;;;;;;5120613;28;20034;-65
2022/03/22 01:05:19;;;;;;;5.18;4.05;;;14.40;46.90;;;;;;5120943;28;20031;-66
2022/03/22 01:07:46;;;;;;;6.40;4.97;;;14.30;46.80;;;;;;5120839;28;20027;-66
2022/03/22 01:10:14;;;;;;;4.78;4.20;;;14.30;46.80;;;;;;5120422;28;20027;-67
2022/03/22 01:12:42;;;;;;;5.47;4.30;;;14.30;46.80;;;;;;5120483;28;20023;-66
2022/03/22 01:15:10;;;;;;;6.37;4.57;;;14.30;46.70;;;;;;5120429;28;20023;-68
2022/03/22 01:17:37;;;;;;;5.07;3.97;;;14.30;46.80;;;;;;5120393;28;20031;-67
2022/03/22 01:20:10;;;;;;;5.97;4.80;;;14.30;46.80;;;;;;5120251;28;20023;-66
2022/03/22 01:22:38;;;;;;;5.65;4.82;;;14.30;46.80;;;;;;5120281;28;20365;-67
2022/03/22 01:25:07;;;;;;;6.75;4.72;;;14.30;46.80;;;;;;5120214;28;20050;-66
2022/03/22 01:27:34;;;;;;;5.20;4.47;;;14.30;46.80;;;;;;5120158;28;20029;-66
2022/03/22 01:30:00;;;;;;;4.90;4.40;;;14.30;46.80;;;;;;5120117;28;20055;-66
2022/03/22 01:32:25;;;;;;;5.90;4.88;;;14.30;46.80;;;;;;5120091;28;20026;-66
2022/03/22 01:34:51;;;;;;;5.85;4.88;;;14.30;46.90;;;;;;5120104;28;20039;-67
2022/03/22 01:37:17;;;;;;;5.47;4.60;;;14.20;46.80;;;;;;5120066;28;20012;-68
2022/03/22 01:39:43;;;;;;;6.03;4.60;;;14.30;46.90;;;;;;5120022;28;20018;-68
2022/03/22 01:42:08;;;;;;;9.77;5.05;;;14.20;46.90;;;;;;5120020;28;20027;-66
2022/03/22 01:44:34;;;;;;;6.05;4.90;;;14.20;46.80;;;;;;5119952;28;20024;-66
2022/03/22 01:47:01;;;;;;;5.20;4.45;;;14.20;46.80;;;;;;5119820;28;20059;-66
2022/03/22 01:49:27;;;;;;;6.35;4.85;;;14.20;46.80;;;;;;5119887;28;20019;-67
2022/03/22 01:51:54;;;;;;;5.63;4.38;;;14.20;46.80;;;;;;5119824;28;20027;-67
2022/03/22 01:54:20;;;;;;;5.10;4.07;;;14.20;46.80;;;;;;5118871;28;20320;-66
2022/03/22 01:56:46;;;;;;;6.15;4.63;;;14.20;46.80;;;;;;5119913;28;20096;-67
2022/03/22 01:59:12;;;;;;;5.82;4.70;;;14.20;46.80;;;;;;5123528;28;20035;-67
2022/03/22 02:07:08;;;;;;;5.43;4.43;;;14.20;46.80;;;;;;5126631;28;20369;-67
2022/03/22 02:09:34;;;;;;;5.97;4.70;;;14.20;46.80;;;;;;5125244;28;20293;-68
2022/03/22 02:11:59;;;;;;;6.65;5.13;;;14.10;46.80;;;;;;5126502;28;20024;-67
2022/03/22 02:14:25;;;;;;;5.50;4.35;;;14.10;46.80;;;;;;5126549;27;20410;-67
2022/03/22 02:16:54;;;;;;;5.18;4.32;;;14.10;46.80;;;;;;5126527;27;20488;-67
2022/03/22 02:19:21;;;;;;;6.10;4.63;;;14.10;46.90;;;;;;5126525;28;20031;-68
2022/03/22 02:21:53;;;;;;;6.53;5.03;;;14.10;46.90;;;;;;5126502;27;20023;-67
2022/03/22 02:24:18;;;;;;;5.97;4.55;;;14.10;46.90;;;;;;5126485;28;20335;-66
2022/03/22 02:26:44;;;;;;;5.70;4.20;;;14.10;46.90;;;;;;5126647;28;20053;-66
2022/03/22 02:29:09;;;;;;;7.10;4.60;;;14.10;46.90;;;;;;5126299;28;20228;-66
2022/03/22 02:31:35;;;;;;;6.45;5.30;;;14.10;46.90;;;;;;5126358;28;20043;-66
2022/03/22 02:34:02;;;;;;;5.78;4.80;;;14.10;46.90;;;;;;5126368;28;20029;-67
2022/03/22 02:36:28;;;;;;;5.70;4.30;;;14.10;46.90;;;;;;5126393;27;20028;-67
2022/03/22 02:38:54;;;;;;;6.15;4.10;;;14.10;46.90;;;;;;5126292;28;20339;-67
2022/03/22 02:41:22;;;;;;;5.45;4.85;;;14.00;46.90;;;;;;5126296;28;20027;-66
2022/03/22 02:43:48;;;;;;;6.85;4.45;;;14.10;46.90;;;;;;5126369;27;20053;-66
2022/03/22 02:46:14;;;;;;;5.50;4.40;;;14.10;46.90;;;;;;5126030;27;20126;-66
2022/03/22 02:48:41;;;;;;;4.90;4.07;;;14.00;46.90;;;;;;5126180;27;20023;-66
2022/03/22 02:51:07;;;;;;;7.03;4.38;;;14.00;46.90;;;;;;5126245;27;20043;-67
2022/03/22 02:53:33;;;;;;;6.00;4.85;;;14.00;46.90;;;;;;5126198;27;20019;-67
2022/03/22 02:56:01;;;;;;;5.75;4.78;;;14.00;46.90;;;;;;5126293;28;20059;-67
2022/03/22 02:58:27;;;;;;;5.32;4.05;;;14.00;46.90;;;;;;5126202;27;20020;-67
2022/03/22 03:00:53;;;;;;;5.00;4.00;;;14.00;46.90;;;;;;5126169;27;20084;-67
2022/03/22 03:03:21;;;;;;;6.10;4.60;;;14.00;46.90;;;;;;5126173;27;20032;-66
2022/03/22 03:05:50;;;;;;;4.95;4.45;;;14.00;46.90;;;;;;5126135;28;20015;-67
2022/03/22 03:08:17;;;;;;;5.68;4.60;;;14.00;47.00;;;;;;5125638;27;20031;-66
2022/03/22 03:10:43;;;;;;;6.38;5.13;;;14.00;46.90;;;;;;5122814;27;20045;-67
2022/03/22 03:13:09;;;;;;;6.05;4.78;;;13.90;46.90;;;;;;5122934;28;20019;-66
2022/03/22 03:15:34;;;;;;;5.38;4.18;;;14.00;47.00;;;;;;5121467;28;20047;-67
2022/03/22 03:18:00;;;;;;;5.65;3.95;;;13.90;47.00;;;;;;5122749;28;20033;-66
2022/03/22 03:20:27;;;;;;;5.00;4.15;;;13.90;46.90;;;;;;5121363;28;20228;-67
2022/03/22 03:22:52;;;;;;;5.45;4.47;;;13.90;46.90;;;;;;5122636;27;20023;-66
2022/03/22 03:25:18;;;;;;;5.55;4.38;;;13.90;46.90;;;;;;5122602;28;20038;-66
2022/03/22 03:27:44;;;;;;;5.07;4.40;;;13.90;46.90;;;;;;5122513;28;20247;-67
2022/03/22 03:30:10;;;;;;;4.78;3.95;;;13.90;47.00;;;;;;5122463;28;20440;-67
2022/03/22 03:32:36;;;;;;;4.30;3.90;;;13.90;46.90;;;;;;5122401;28;20031;-67
2022/03/22 03:35:03;;;;;;;5.00;4.10;;;13.90;46.90;;;;;;5122375;28;20079;-66
2022/03/22 03:37:31;;;;;;;5.47;4.03;;;13.90;47.00;;;;;;5122408;28;20034;-67
2022/03/22 03:39:57;;;;;;;5.60;4.70;;;13.90;47.00;;;;;;5122377;28;20027;-66
2022/03/22 03:42:22;;;;;;;5.38;4.20;;;13.90;47.00;;;;;;5122171;28;20015;-66
2022/03/22 03:47:34;;;;;;;5.05;4.45;;;13.80;46.90;;;;;;5122010;28;20103;-66
2022/03/22 03:50:02;;;;;;;7.80;4.85;;;13.90;47.00;;;;;;5122056;28;20064;-67
2022/03/22 03:52:31;;;;;;;4.95;4.07;;;13.90;47.00;;;;;;5122149;28;20015;-66
2022/03/22 03:54:57;;;;;;;6.85;4.40;;;13.80;47.00;;;;;;5122031;28;20203;-66
2022/03/22 03:57:25;;;;;;;5.30;4.07;;;13.80;47.00;;;;;;5121973;28;20141;-67
2022/03/22 03:59:52;;;;;;;4.22;3.78;;;13.80;47.00;;;;;;5120533;28;20422;-68
2022/03/22 04:02:20;;;;;;;5.43;4.22;;;13.80;46.90;;;;;;5121897;28;20015;-66
2022/03/22 04:04:52;;;;;;;6.55;4.43;;;13.80;46.90;;;;;;5121882;28;20027;-66
2022/03/22 04:07:23;;;;;;;6.32;4.70;;;13.80;47.00;;;;;;5121855;28;20027;-66
2022/03/22 04:09:49;;;;;;;5.50;4.55;;;13.80;47.00;;;;;;5121751;28;20047;-66
2022/03/22 04:12:16;;;;;;;4.60;3.92;;;13.80;46.90;;;;;;5121735;28;20034;-66
2022/03/22 04:14:42;;;;;;;5.47;4.63;;;13.80;46.90;;;;;;5121601;28;20082;-65
2022/03/22 04:17:08;;;;;;;5.40;4.38;;;13.70;46.90;;;;;;5121608;28;20332;-67
2022/03/22 04:19:35;;;;;;;6.25;4.90;;;13.80;47.00;;;;;;5121497;28;20098;-66
2022/03/22 04:22:02;;;;;;;5.45;4.47;;;13.70;46.90;;;;;;5121122;28;20031;-67
2022/03/22 04:24:28;;;;;;;5.40;4.43;;;13.70;47.00;;;;;;5121447;28;20092;-67
2022/03/22 04:32:41;;;;;;;5.35;4.07;;;13.80;47.00;;;;;;5121382;28;20035;-66
2022/03/22 04:32:42;;;;;;;5.28;3.97;;;13.70;46.90;;;;;;5121300;28;20129;-67
2022/03/22 04:35:19;;;;;;;5.03;4.10;;;13.70;46.90;;;;;;5121235;28;20414;-66
2022/03/22 04:37:49;;;;;;;6.05;4.10;;;13.70;46.90;;;;;;5121243;28;20027;-66
2022/03/22 04:40:16;;;;;;;5.18;4.43;;;13.70;47.00;;;;;;5121102;28;20031;-67
2022/03/22 04:42:42;;;;;;;5.15;4.10;;;13.70;47.00;;;;;;5121099;28;20020;-66
2022/03/22 04:45:09;;;;;;;5.50;4.00;;;13.70;47.00;;;;;;5121007;28;20431;-66
2022/03/22 04:47:35;;;;;;;6.10;4.90;;;13.70;47.00;;;;;;5120830;28;20355;-67
2022/03/22 04:50:05;;;;;;;6.38;4.43;;;13.70;47.00;;;;;;5120913;28;20026;-67
2022/03/22 04:58:02;;;;;;;5.90;4.35;;;13.60;47.00;;;;;;5120765;28;20090;-67
2022/03/22 05:00:27;;;;;;;6.25;4.70;;;13.60;47.00;;;;;;5120702;28;20115;-66
2022/03/22 05:02:53;;;;;;;5.60;4.70;;;13.60;47.00;;;;;;5120631;28;20052;-67
2022/03/22 05:06:25;;;;;;;5.28;4.38;;;13.60;47.00;;;;;;5120620;28;20028;-66
2022/03/22 05:08:05;;;;;;;4.97;4.05;;;13.60;47.00;;;;;;5120460;28;20114;-66
2022/03/22 05:10:33;;;;;;;5.18;4.30;;;13.60;47.00;;;;;;5120394;28;20024;-66
2022/03/22 05:13:00;;;;;;;6.47;4.43;;;13.60;47.00;;;;;;5120523;28;20020;-66
2022/03/22 05:15:25;;;;;;;4.68;4.00;;;13.60;47.00;;;;;;5120419;28;20091;-66
2022/03/22 05:17:51;;;;;;;7.78;4.43;;;13.60;47.00;;;;;;5120371;28;20038;-67
2022/03/22 05:20:17;;;;;;;4.97;4.10;;;13.60;47.00;;;;;;5120441;28;20208;-66
2022/03/22 05:22:44;;;;;;;5.90;4.72;;;13.60;47.00;;;;;;5120301;28;20034;-66
2022/03/22 05:25:10;;;;;;;6.35;4.68;;;13.60;47.00;;;;;;5120344;28;20035;-66
2022/03/22 05:27:37;;;;;;;5.43;4.03;;;13.60;47.00;;;;;;5120249;28;20034;-66
2022/03/22 05:30:06;;;;;;;5.57;4.32;;;13.60;47.00;;;;;;5120124;28;20020;-66
2022/03/22 05:32:32;;;;;;;5.40;4.03;;;13.60;47.00;;;;;;5120124;28;20027;-66
2022/03/22 05:34:58;;;;;;;4.38;3.55;;;13.60;47.00;;;;;;5119550;28;20027;-65
2022/03/22 05:37:25;;;;;;;4.55;3.88;;;13.60;47.00;;;;;;5120063;28;20030;-66
2022/03/22 05:39:50;;;;;;;5.13;4.18;;;13.60;47.00;;;;;;5120093;28;20049;-66
2022/03/22 05:42:16;;;;;;;5.60;4.15;;;13.60;47.00;;;;;;5119972;28;20230;-66
2022/03/22 05:44:43;;;;;;;5.18;3.80;;;13.60;47.00;;;;;;5119968;28;20091;-67
2022/03/22 05:47:09;;;;;;;4.47;3.80;;;13.60;47.00;;;;;;5119925;28;20051;-66
2022/03/22 05:49:38;;;;;;;3.95;3.47;;;13.60;47.00;;;;;;5119911;28;20323;-66
2022/03/22 05:52:06;;;;;;;5.68;4.30;;;13.60;47.00;;;;;;5119909;28;20023;-65
2022/03/22 05:54:32;;;;;;;4.15;3.70;;;13.60;47.00;;;;;;5118505;28;20023;-65
2022/03/22 05:56:58;;;;;;;5.82;4.25;;;13.50;46.90;;;;;;5119943;28;20011;-67
2022/03/22 05:59:24;;;;;;;4.70;3.63;;;13.50;46.90;;;;;;5119839;28;20027;-66
2022/03/22 06:01:49;;;;;;;6.28;4.55;;;13.60;47.00;;;;;;5119885;28;20468;-66
2022/03/22 06:04:16;;;;;;;5.15;3.85;;;13.60;47.00;;;;;;5119835;28;20093;-67
2022/03/22 06:06:42;;;;;;;4.88;4.03;;;13.50;46.90;;;;;;5119806;28;20027;-66
2022/03/22 06:09:07;;;;;;;5.20;4.28;;;13.50;46.90;;;;;;5119699;28;20030;-67
2022/03/22 06:11:36;;;;;;;5.00;3.85;;;13.60;47.00;;;;;;5119750;28;20054;-66
2022/03/22 06:14:06;;;;;;;4.57;3.58;;;13.50;46.90;;;;;;5119732;28;20016;-67
2022/03/22 06:16:32;;;;;;;5.95;4.32;;;13.60;46.90;;;;;;5119731;28;20058;-67
2022/03/22 06:18:58;;;;;;;5.15;4.07;;;13.50;46.90;;;;;;5119720;28;20393;-66
2022/03/22 06:21:24;;;;;;;5.05;3.60;;;13.50;46.90;;;;;;5119641;28;20027;-66
2022/03/22 06:23:51;;;;;;;4.88;3.92;;;13.60;46.90;;;;;;5119595;28;20388;-66
2022/03/22 06:26:16;;;;;;;4.80;3.83;;;13.50;46.90;;;;;;5119672;28;20028;-67
2022/03/22 06:28:43;;;;;;;4.57;3.80;;;13.60;46.90;;;;;;5119489;28;20039;-66
2022/03/22 06:31:09;;;;;;;5.95;4.50;;;13.60;46.90;;;;;;5119583;28;20027;-67
2022/03/22 06:33:35;;;;;;;5.10;4.13;;;13.60;46.90;;;;;;5119525;28;20024;-66
2022/03/22 06:36:01;;;;;;;4.20;3.60;;;13.60;46.90;;;;;;5119570;28;20642;-66
2022/03/22 06:38:26;;;;;;;4.90;3.85;;;13.60;46.90;;;;;;5119498;28;20083;-67
2022/03/22 06:40:53;;;;;;;4.63;4.03;;;13.60;46.80;;;;;;5119424;28;20016;-66
2022/03/22 06:43:20;;;;;;;5.00;3.90;;;13.60;46.80;;;;;;5119505;28;20020;-67
2022/03/22 06:45:47;;;;;;;4.60;3.60;;;13.60;46.80;;;;;;5121748;28;20062;-67
2022/03/22 06:48:15;;;;;;;4.45;4.05;;;13.60;46.70;;;;;;5123311;28;20296;-68
2022/03/22 06:50:43;;;;;;;4.65;3.78;;;13.60;46.70;;;;;;5123295;28;20073;-66
2022/03/22 06:53:09;;;;;;;4.57;3.90;;;13.60;46.70;;;;;;5123299;28;20332;-66
2022/03/22 06:55:36;;;;;;;4.72;4.25;;;13.60;46.70;;;;;;5123168;28;20027;-66
2022/03/22 06:58:03;;;;;;;4.80;3.78;;;13.70;46.60;;;;;;5123121;28;20318;-66
2022/03/22 07:00:31;;;;;;;5.13;4.15;;;13.70;46.70;;;;;;5123102;28;20274;-66
2022/03/22 07:02:57;;;;;;;4.40;4.00;;;13.70;46.70;;;;;;5123114;28;20016;-68
2022/03/22 07:05:23;;;;;;;4.97;4.13;;;13.70;46.60;;;;;;5122929;28;20080;-69
2022/03/22 07:07:48;;;;;;;5.32;4.05;;;13.70;46.60;;;;;;5122955;28;20072;-66
2022/03/22 07:10:17;;;;;;;4.38;3.60;;;13.70;46.50;;;;;;5122814;28;20024;-67
2022/03/22 07:13:05;;;;;;;5.45;3.75;;;13.70;46.50;;;;;;5122818;27;20018;-68
2022/03/22 07:15:33;;;;;;;;;;;13.70;46.50;;;;;;5123332;28;20031;-66
2022/03/22 07:18:00;;;;;;;5.15;3.85;;;13.80;46.50;;;;;;5122825;28;19929;-67
2022/03/22 07:20:26;;;;;;;4.85;3.95;;;13.70;46.40;;;;;;5122708;28;20031;-67
2022/03/22 07:22:52;;;;;;;5.53;4.53;;;13.70;46.40;;;;;;5122695;28;20022;-66
2022/03/22 07:25:18;;;;;;;4.80;3.45;;;13.80;46.40;;;;;;5122628;28;20023;-67
2022/03/22 07:27:45;;;;;;;5.82;4.18;;;13.70;46.30;;;;;;5122553;28;20054;-66
2022/03/22 07:30:14;;;;;;;4.47;3.90;;;13.70;46.40;;;;;;5122423;28;20128;-67
2022/03/22 07:32:40;;;;;;;5.00;3.92;;;13.80;46.40;;;;;;5122475;28;20020;-66
2022/03/22 07:35:07;;;;;;;4.45;4.05;;;13.70;46.40;;;;;;5122469;28;20092;-66
2022/03/22 07:37:34;;;;;;;5.00;4.00;;;13.80;46.40;;;;;;5122299;28;20068;-66
2022/03/22 07:40:05;;;;;;;4.07;3.67;;;13.80;46.30;;;;;;5122489;27;20028;-66
2022/03/22 07:42:31;;;;;;;5.57;4.22;;;13.80;46.30;;;;;;5122277;28;20023;-66
2022/03/22 07:44:59;;;;;;;4.93;3.85;;;13.80;46.30;;;;;;5122302;28;20332;-66
2022/03/22 07:47:25;;;;;;;4.25;3.67;;;13.80;46.20;;;;;;5122124;28;20059;-66
2022/03/22 07:55:20;;;;;;;4.72;3.72;;;13.90;46.20;;;;;;5122089;28;20072;-67
2022/03/22 07:57:46;;;;;;;4.18;3.65;;;13.90;46.10;;;;;;5121270;28;20027;-66
2022/03/22 08:00:13;;;;;;;5.05;4.03;;;14.00;46.10;;;;;;5121983;28;20043;-67
2022/03/22 08:02:55;;;;;;;4.25;3.40;;;14.00;46.00;;;;;;5122011;28;20023;-65
2022/03/22 08:05:22;;;;;;;4.28;3.70;;;14.00;46.00;;;;;;5120557;28;20034;-66
2022/03/22 08:07:48;;;;;;;4.05;3.63;;;14.00;46.60;;;;;;5121871;28;20012;-66
2022/03/22 08:10:13;;;;;;;5.07;3.97;;;14.00;45.90;;;;;;5121661;28;20047;-67
2022/03/22 08:12:42;;;;;;;5.28;4.20;;;14.10;46.00;;;;;;5121739;28;20386;-67
2022/03/22 08:15:09;;;;;;;4.57;3.35;;;14.20;45.70;;;;;;5121716;28;20065;-67
2022/03/22 08:17:37;;;;;;;4.70;3.70;;;14.20;45.60;;;;;;5121605;28;20028;-68
2022/03/22 08:20:04;;;;;;;4.47;3.42;;;14.40;45.60;;;;;;5121501;28;20016;-67
2022/03/22 08:22:32;;;;;;;4.82;3.75;;;14.40;45.40;;;;;;5121458;28;20189;-66
2022/03/22 08:24:57;;;;;;;4.20;3.67;;;14.40;45.30;;;;;;5121515;27;20315;-67
2022/03/22 08:27:23;;;;;;;4.78;3.95;;;14.50;45.20;;;;;;5121382;28;20041;-66
2022/03/22 08:29:51;;;;;;;5.13;3.95;;;14.50;45.20;;;;;;5121308;28;20027;-67
2022/03/22 08:32:17;;;;;;;4.63;3.80;;;14.50;45.20;;;;;;5120068;28;20321;-67
2022/03/22 08:34:42;;;;;;;5.28;3.67;;;14.50;45.20;;;;;;5121304;28;20016;-67
2022/03/22 08:37:08;;;;;;;4.45;3.55;;;14.50;45.10;;;;;;5121515;28;20034;-66
2022/03/22 08:39:34;;;;;;;4.60;3.45;;;14.50;45.10;;;;;;5121179;28;20430;-67
2022/03/22 08:41:59;;;;;;;4.68;3.78;;;14.50;45.00;;;;;;5121202;28;20091;-67
2022/03/22 08:44:25;;;;;;;4.40;3.50;;;14.50;45.00;;;;;;5121063;28;20062;-66
2022/03/22 08:46:51;;;;;;;4.88;4.05;;;14.50;45.00;;;;;;5120906;28;20087;-65
2022/03/22 08:49:17;;;;;;;5.07;4.10;;;14.50;45.00;;;;;;5120963;28;20024;-66
2022/03/22 08:51:43;;;;;;;5.28;3.65;;;14.50;45.00;;;;;;5120987;28;20012;-65
2022/03/22 08:54:09;;;;;;;4.40;3.83;;;14.50;45.10;;;;;;5120984;28;20023;-66
2022/03/22 08:56:35;;;;;;;4.80;3.95;;;14.50;45.10;;;;;;5120868;28;20024;-67
2022/03/22 08:59:00;;;;;;;4.57;3.42;;;14.50;45.10;;;;;;5120818;28;20248;-66
2022/03/22 09:01:30;;;;;;;4.07;3.30;;;14.50;45.10;;;;;;5120746;28;20027;-66
2022/03/22 09:06:40;;;;;;;4.13;3.70;;;14.50;45.10;;;;;;5120770;28;20346;-65
2022/03/22 09:09:09;;;;;;;3.90;3.20;;;14.50;45.20;;;;;;5119650;28;20319;-67
2022/03/22 09:11:36;;;;;;;4.72;4.10;;;14.50;45.20;;;;;;5120610;28;20085;-67
2022/03/22 09:14:03;;;;;;;4.82;3.72;;;14.50;45.20;;;;;;5120556;28;20308;-67
2022/03/22 09:16:28;;;;;;;5.72;4.00;;;14.50;45.20;;;;;;5120572;27;20083;-67
2022/03/22 09:18:54;;;;;;;4.20;3.47;;;14.50;45.20;;;;;;5120473;28;20220;-67
2022/03/22 09:21:20;;;;;;;5.10;3.95;;;14.50;45.20;;;;;;5120457;28;20077;-66
2022/03/22 09:23:46;;;;;;;3.92;3.33;;;14.50;45.20;;;;;;5120492;28;20027;-66
2022/03/22 09:26:12;;;;;;;5.53;4.03;;;14.60;45.20;;;;;;5120481;28;20015;-66
2022/03/22 09:28:38;;;;;;;4.20;3.67;;;14.60;45.30;;;;;;5120286;28;20016;-68
2022/03/22 09:31:04;;;;;;;4.70;4.00;;;14.50;45.20;;;;;;5120298;28;20571;-66
2022/03/22 09:33:30;;;;;;;5.28;3.85;;;14.50;45.30;;;;;;5120221;28;20223;-66
2022/03/22 09:35:57;;;;;;;4.15;3.70;;;14.50;45.20;;;;;;5120268;28;20032;-66
2022/03/22 09:38:23;;;;;;;5.22;3.78;;;14.50;45.30;;;;;;5120207;28;20079;-66
2022/03/22 09:40:53;;;;;;;4.35;3.75;;;14.50;45.30;;;;;;5118992;28;20362;-66
2022/03/22 09:43:23;;;;;;;4.70;3.53;;;14.50;45.30;;;;;;5120492;28;20035;-66
2022/03/22 09:45:51;;;;;;;4.07;3.67;;;14.50;45.30;;;;;;5119963;28;20053;-67
2022/03/22 09:48:17;;;;;;;6.07;4.43;;;14.50;45.30;;;;;;5120168;28;20027;-67
2022/03/22 09:53:28;;;;;;;4.35;3.92;;;14.50;45.30;;;;;;5120074;28;20018;-67
2022/03/22 09:55:53;;;;;;;5.00;4.00;;;14.60;45.40;;;;;;5120015;28;20024;-67
2022/03/22 09:58:19;;;;;;;4.05;3.53;;;14.60;45.40;;;;;;5119991;28;20020;-66
2022/03/22 10:00:45;;;;;;;5.32;3.67;;;14.60;45.30;;;;;;5119916;28;20047;-68
2022/03/22 10:03:21;;;;;;;4.00;3.40;;;14.60;45.40;;;;;;5119952;28;20020;-67
2022/03/22 10:06:05;;;;;;;4.20;3.45;;;14.60;45.40;;;;;;5120202;28;20019;-67
2022/03/22 10:08:31;;;;;;;4.57;3.83;;;14.60;45.40;;;;;;5119892;28;20035;-66
2022/03/22 10:11:00;;;;;;;5.30;4.10;;;14.60;45.40;;;;;;5119907;28;20019;-66
2022/03/22 10:13:28;;;;;;;4.50;3.50;;;14.60;45.40;;;;;;5119822;28;20065;-66
2022/03/22 10:16:02;;;;;;;4.75;3.83;;;14.60;45.40;;;;;;5119803;28;20031;-66
2022/03/22 10:18:27;;;;;;;3.53;3.20;;;14.60;45.40;;;;;;5119824;28;20015;-69
2022/03/22 10:21:01;;;;;;;4.32;3.60;;;14.60;45.30;;;;;;5123022;28;20387;-67
2022/03/22 10:23:30;;;;;;;4.68;3.50;;;14.60;45.30;;;;;;5123961;28;20034;-69
2022/03/22 10:26:07;;;;;;;4.50;3.97;;;14.60;46.00;;;;;;5123877;28;20023;-67
2022/03/22 10:28:34;;;;;;;5.15;3.88;;;14.70;45.40;;;;;;5123669;28;20019;-67
2022/03/22 10:30:59;;;;;;;3.90;3.42;;;14.70;45.40;;;;;;5123814;28;20255;-66
2022/03/22 10:33:25;;;;;;;6.80;3.75;;;14.70;45.40;;;;;;5123773;27;20037;-68
2022/03/22 10:35:51;;;;;;;3.88;3.40;;;14.70;45.40;;;;;;5124025;28;20043;-68
2022/03/22 10:38:19;;;;;;;4.00;3.40;;;14.70;45.50;;;;;;5123580;28;20015;-67
2022/03/22 10:40:47;;;;;;;5.88;4.03;;;14.70;45.40;;;;;;5123587;28;20028;-68
2022/03/22 10:43:18;;;;;;;4.22;3.78;;;14.70;45.40;;;;;;5123519;28;20308;-67
2022/03/22 10:45:50;;;;;;;4.72;3.40;;;14.70;45.40;;;;;;5123366;28;20051;-67
2022/03/22 10:48:24;;;;;;;3.70;3.30;;;14.70;45.50;;;;;;5123517;28;20127;-66
2022/03/22 10:50:51;;;;;;;4.63;3.55;;;14.70;45.40;;;;;;5122218;28;20032;-66
2022/03/22 10:53:18;;;;;;;4.10;3.40;;;14.70;45.40;;;;;;5123348;28;20031;-67
2022/03/22 10:55:45;;;;;;;4.22;3.45;;;14.80;45.40;;;;;;5123323;28;20510;-65
2022/03/22 10:58:15;;;;;;;3.38;3.08;;;14.80;45.40;;;;;;5123309;28;20027;-67
2022/03/22 11:00:45;;;;;;;4.57;3.60;;;14.80;45.50;;;;;;5121924;28;20278;-66
2022/03/22 11:03:13;;;;;;;4.00;3.60;;;14.80;45.50;;;;;;5123123;28;20023;-67
2022/03/22 11:05:46;;;;;;;4.95;3.58;;;14.80;45.50;;;;;;5121862;28;20215;-66
2022/03/22 11:08:12;;;;;;;4.50;3.53;;;14.80;45.50;;;;;;5123106;28;20028;-66
2022/03/22 11:10:37;;;;;;;4.25;3.85;;;14.80;45.50;;;;;;5123000;28;20020;-68
2022/03/22 11:13:03;;;;;;;4.47;3.92;;;14.80;45.40;;;;;;5122921;28;20242;-66
2022/03/22 11:15:46;;;;;;;4.60;3.63;;;14.80;45.50;;;;;;5123039;28;20034;-66
2022/03/22 11:18:14;;;;;;;4.30;3.85;;;14.80;45.60;;;;;;5121640;28;20064;-67
2022/03/22 11:21:15;;;;;;;4.10;3.17;;;14.80;45.60;;;;;;5122844;28;20027;-65
2022/03/22 11:23:42;;;;;;;4.20;3.80;;;14.80;45.70;;;;;;5111987;27;20046;-66
2022/03/22 11:26:19;;;;;;;4.28;3.63;;;14.80;45.60;;;;;;5122796;28;20016;-67
2022/03/22 11:28:48;;;;;;;4.00;3.03;;;14.80;45.60;;;;;;5122712;28;20358;-66
2022/03/22 11:31:16;;;;;;;4.38;3.50;;;14.80;45.60;;;;;;5121458;28;20141;-65
2022/03/22 11:36:47;;;;;;;5.22;3.60;;;14.90;45.70;;;;;;5122574;28;20096;-67
2022/03/22 11:42:15;;;;;;;4.45;3.45;;;14.90;45.70;;;;;;5122507;28;20024;-65
2022/03/22 11:42:22;;;;;;;4.05;3.58;;;14.90;45.80;;;;;;5122435;28;20066;-65
2022/03/22 11:44:58;;;;;;;4.07;3.17;;;14.90;45.80;;;;;;5121100;28;20252;-68
2022/03/22 11:47:25;;;;;;;3.92;3.35;;;14.90;45.70;;;;;;5122203;27;20173;-66
2022/03/22 11:49:58;;;;;;;4.03;3.50;;;14.90;45.70;;;;;;5122334;28;20038;-66
2022/03/22 11:52:40;;;;;;;3.58;3.10;;;14.80;45.70;;;;;;5122264;28;20320;-66
2022/03/22 11:55:07;;;;;;;4.40;3.58;;;14.90;45.70;;;;;;5122239;28;20067;-68
2022/03/22 11:57:56;;;;;;;3.67;3.30;;;14.90;45.70;;;;;;5122150;28;20015;-67
2022/03/22 12:00:43;;;;;;;4.63;3.47;;;14.90;45.70;;;;;;5122121;28;20024;-66
2022/03/22 12:03:11;;;;;;;4.03;3.47;;;14.90;45.70;;;;;;5122100;28;20028;-66
2022/03/22 12:05:36;;;;;;;3.87;3.47;;;14.90;45.70;;;;;;5122064;28;20034;-67
2022/03/22 12:08:07;;;;;;;4.30;3.33;;;14.90;45.70;;;;;;5121983;28;20251;-66
2022/03/22 12:10:33;;;;;;;4.45;3.33;;;14.90;45.70;;;;;;5121886;28;20020;-67
2022/03/22 12:12:59;;;;;;;3.97;3.13;;;15.00;45.80;;;;;;5121825;28;20047;-66
2022/03/22 12:15:24;;;;;;;3.75;3.38;;;14.90;45.80;;;;;;5121771;28;20044;-67
2022/03/22 12:17:51;;;;;;;4.53;3.95;;;15.00;45.80;;;;;;5120443;28;20080;-67
2022/03/22 12:20:20;;;;;;;4.13;3.25;;;15.00;45.80;;;;;;5121709;28;20035;-66
2022/03/22 12:22:53;;;;;;;3.67;3.30;;;15.00;45.80;;;;;;5121765;27;20354;-67
2022/03/22 12:25:21;;;;;;;4.72;3.45;;;15.00;45.80;;;;;;5121655;28;20031;-67
2022/03/22 12:27:56;;;;;;;4.53;3.65;;;15.00;45.80;;;;;;5120274;28;20204;-67
2022/03/22 12:30:24;;;;;;;3.92;3.53;;;15.00;45.90;;;;;;5121502;28;20100;-68
2022/03/22 12:32:54;;;;;;;4.47;3.50;;;15.00;45.80;;;;;;5121495;28;20347;-66
2022/03/22 12:35:21;;;;;;;4.95;3.65;;;15.00;45.80;;;;;;5121511;28;20058;-66
2022/03/22 12:37:48;;;;;;;4.65;3.60;;;15.00;45.80;;;;;;5121412;28;20034;-67
2022/03/22 12:40:16;;;;;;;4.13;3.25;;;15.00;45.80;;;;;;5121258;27;20051;-66
2022/03/22 12:42:43;;;;;;;3.40;3.10;;;15.00;45.80;;;;;;5121002;28;20185;-68
2022/03/22 12:45:10;;;;;;;3.95;3.47;;;15.00;45.70;;;;;;5121261;28;20031;-66
2022/03/22 12:47:39;;;;;;;3.95;3.22;;;15.00;45.80;;;;;;5120928;28;20060;-67
2022/03/22 12:50:07;;;;;;;3.92;3.10;;;15.00;45.80;;;;;;5120011;28;20031;-68
2022/03/22 12:52:33;;;;;;;4.93;3.80;;;15.00;45.90;;;;;;5121090;28;20112;-67
2022/03/22 12:54:59;;;;;;;4.25;3.50;;;15.10;45.90;;;;;;5121052;27;20319;-68
2022/03/22 12:57:25;;;;;;;4.13;3.40;;;15.10;45.90;;;;;;5121047;28;20047;-67
2022/03/22 12:59:51;;;;;;;4.18;3.40;;;15.10;45.90;;;;;;5120871;28;20023;-68
2022/03/22 13:02:18;;;;;;;4.20;3.22;;;15.10;45.90;;;;;;5120922;28;20231;-67
2022/03/22 13:04:48;;;;;;;4.05;3.15;;;15.10;45.90;;;;;;5120796;28;20040;-67
2022/03/22 13:07:27;;;;;;;5.70;3.78;;;15.10;45.90;;;;;;5119552;28;20027;-67
2022/03/22 13:13:14;;;;;;;4.15;3.08;;;15.20;45.80;;;;;;5077655;28;20035;-67
2022/03/22 13:15:47;;;;;;;3.05;2.78;;;15.20;45.80;;;;;;5077755;28;20035;-67
2022/03/22 13:18:13;;;;;;;4.78;3.83;;;15.20;45.70;;;;;;5102729;28;20043;-67
2022/03/22 13:20:41;;;;;;;3.75;3.17;;;15.20;45.70;;;;;;5120590;28;20031;-66
2022/03/22 13:23:08;;;;;;;3.43;3.13;;;15.20;45.70;;;;;;5120588;28;20032;-67
2022/03/22 13:25:36;;;;;;;3.72;3.10;;;15.20;45.80;;;;;;5120462;28;20064;-66